sensor_id;sensor_type;location;lat;lon;timestamp;temperature;humidity
68511;SHT31;55512;50.102;19.958;2022-07-21T00:01:30;25.51;43.96
68511;SHT31;55512;50.102;19.958;2022-07-21T00:03:56;25.53;43.92
68511;SHT31;55512;50.102;19.958;2022-07-21T00:06:21;25.52;43.94
68511;SHT31;55512;50.102;19.958;2022-07-21T00:08:47;25.52;43.95
68511;SHT31;55512;50.102;19.958;2022-07-21T00:11:12;25.44;44.06
68511;SHT31;55512;50.102;19.958;2022-07-21T00:13:38;25.38;44.13
68511;SHT31;55512;50.102;19.958;2022-07-21T00:16:04;25.32;44.26
68511;SHT31;55512;50.102;19.958;2022-07-21T00:18:30;25.28;44.38
68511;SHT31;55512;50.102;19.958;2022-07-21T00:20:56;25.25;44.56
68511;SHT31;55512;50.102;19.958;2022-07-21T00:23:23;25.22;44.62
68511;SHT31;55512;50.102;19.958;2022-07-21T00:25:50;25.20;44.62
68511;SHT31;55512;50.102;19.958;2022-07-21T00:28:16;25.20;44.68
68511;SHT31;55512;50.102;19.958;2022-07-21T00:30:42;25.18;44.79
68511;SHT31;55512;50.102;19.958;2022-07-21T00:33:09;25.14;44.81
68511;SHT31;55512;50.102;19.958;2022-07-21T00:35:35;25.13;44.83
68511;SHT31;55512;50.102;19.958;2022-07-21T00:38:00;25.12;44.91
68511;SHT31;55512;50.102;19.958;2022-07-21T00:40:26;25.10;44.98
68511;SHT31;55512;50.102;19.958;2022-07-21T00:42:52;25.10;45.02
68511;SHT31;55512;50.102;19.958;2022-07-21T00:45:18;25.45;44.42
68511;SHT31;55512;50.102;19.958;2022-07-21T00:47:44;26.26;42.67
68511;SHT31;55512;50.102;19.958;2022-07-21T00:50:11;26.44;42.26
68511;SHT31;55512;50.102;19.958;2022-07-21T00:52:45;26.29;42.38
68511;SHT31;55512;50.102;19.958;2022-07-21T00:55:13;26.33;42.20
68511;SHT31;55512;50.102;19.958;2022-07-21T00:57:43;26.15;42.27
68511;SHT31;55512;50.102;19.958;2022-07-21T01:00:21;26.09;42.53
68511;SHT31;55512;50.102;19.958;2022-07-21T01:02:53;26.08;42.95
68511;SHT31;55512;50.102;19.958;2022-07-21T01:05:20;26.43;42.50
68511;SHT31;55512;50.102;19.958;2022-07-21T01:07:47;26.51;42.81
68511;SHT31;55512;50.102;19.958;2022-07-21T01:10:19;26.43;43.46
68511;SHT31;55512;50.102;19.958;2022-07-21T01:12:50;26.33;43.86
68511;SHT31;55512;50.102;19.958;2022-07-21T01:15:17;26.18;44.21
68511;SHT31;55512;50.102;19.958;2022-07-21T01:17:44;26.01;44.60
68511;SHT31;55512;50.102;19.958;2022-07-21T01:20:12;25.72;45.08
68511;SHT31;55512;50.102;19.958;2022-07-21T01:22:44;24.71;47.38
68511;SHT31;55512;50.102;19.958;2022-07-21T01:25:13;24.63;47.74
68511;SHT31;55512;50.102;19.958;2022-07-21T01:27:39;25.58;45.65
68511;SHT31;55512;50.102;19.958;2022-07-21T01:30:06;25.09;46.67
68511;SHT31;55512;50.102;19.958;2022-07-21T01:32:37;24.38;48.36
68511;SHT31;55512;50.102;19.958;2022-07-21T01:35:05;24.22;48.62
68511;SHT31;55512;50.102;19.958;2022-07-21T01:37:35;24.15;48.45
68511;SHT31;55512;50.102;19.958;2022-07-21T01:40:04;24.26;47.96
68511;SHT31;55512;50.102;19.958;2022-07-21T01:42:50;23.92;48.70
68511;SHT31;55512;50.102;19.958;2022-07-21T01:45:17;23.80;48.91
68511;SHT31;55512;50.102;19.958;2022-07-21T01:47:44;23.74;49.00
68511;SHT31;55512;50.102;19.958;2022-07-21T01:50:10;23.76;49.11
68511;SHT31;55512;50.102;19.958;2022-07-21T01:52:35;23.78;49.16
68511;SHT31;55512;50.102;19.958;2022-07-21T01:55:01;23.76;49.34
68511;SHT31;55512;50.102;19.958;2022-07-21T01:57:26;23.74;49.47
68511;SHT31;55512;50.102;19.958;2022-07-21T01:59:52;23.70;49.64
68511;SHT31;55512;50.102;19.958;2022-07-21T02:02:17;23.67;49.81
68511;SHT31;55512;50.102;19.958;2022-07-21T02:04:46;23.64;50.05
68511;SHT31;55512;50.102;19.958;2022-07-21T02:07:13;23.58;50.34
68511;SHT31;55512;50.102;19.958;2022-07-21T02:09:39;23.52;50.52
68511;SHT31;55512;50.102;19.958;2022-07-21T02:12:04;23.46;50.58
68511;SHT31;55512;50.102;19.958;2022-07-21T02:14:30;23.39;50.43
68511;SHT31;55512;50.102;19.958;2022-07-21T02:16:56;23.19;50.56
68511;SHT31;55512;50.102;19.958;2022-07-21T02:19:21;22.93;50.99
68511;SHT31;55512;50.102;19.958;2022-07-21T02:21:47;22.36;52.30
68511;SHT31;55512;50.102;19.958;2022-07-21T02:24:12;22.14;52.84
68511;SHT31;55512;50.102;19.958;2022-07-21T02:26:38;22.34;52.03
68511;SHT31;55512;50.102;19.958;2022-07-21T02:29:04;22.25;52.21
68511;SHT31;55512;50.102;19.958;2022-07-21T02:31:29;22.14;52.42
68511;SHT31;55512;50.102;19.958;2022-07-21T02:33:55;22.05;52.69
68511;SHT31;55512;50.102;19.958;2022-07-21T02:36:20;21.93;53.02
68511;SHT31;55512;50.102;19.958;2022-07-21T02:38:46;21.80;53.27
68511;SHT31;55512;50.102;19.958;2022-07-21T02:41:11;21.68;53.46
68511;SHT31;55512;50.102;19.958;2022-07-21T02:43:37;21.57;53.70
68511;SHT31;55512;50.102;19.958;2022-07-21T02:46:02;21.45;53.98
68511;SHT31;55512;50.102;19.958;2022-07-21T02:48:28;21.36;54.07
68511;SHT31;55512;50.102;19.958;2022-07-21T02:50:54;21.35;54.11
68511;SHT31;55512;50.102;19.958;2022-07-21T02:53:20;21.33;54.30
68511;SHT31;55512;50.102;19.958;2022-07-21T02:55:47;21.27;54.48
68511;SHT31;55512;50.102;19.958;2022-07-21T02:58:18;21.27;54.75
68511;SHT31;55512;50.102;19.958;2022-07-21T03:00:56;21.27;54.93
68511;SHT31;55512;50.102;19.958;2022-07-21T03:03:27;21.28;55.05
68511;SHT31;55512;50.102;19.958;2022-07-21T03:05:59;21.31;55.27
68511;SHT31;55512;50.102;19.958;2022-07-21T03:08:26;21.53;55.18
68511;SHT31;55512;50.102;19.958;2022-07-21T03:10:52;21.75;54.80
68511;SHT31;55512;50.102;19.958;2022-07-21T03:13:19;21.95;54.50
68511;SHT31;55512;50.102;19.958;2022-07-21T03:15:45;22.04;54.26
68511;SHT31;55512;50.102;19.958;2022-07-21T03:18:10;22.05;54.11
68511;SHT31;55512;50.102;19.958;2022-07-21T03:20:37;22.05;54.01
68511;SHT31;55512;50.102;19.958;2022-07-21T03:23:05;22.03;54.00
68511;SHT31;55512;50.102;19.958;2022-07-21T03:25:31;22.03;54.03
68511;SHT31;55512;50.102;19.958;2022-07-21T03:27:57;22.03;54.09
68511;SHT31;55512;50.102;19.958;2022-07-21T03:30:23;22.04;54.10
68511;SHT31;55512;50.102;19.958;2022-07-21T03:32:49;22.01;54.10
68511;SHT31;55512;50.102;19.958;2022-07-21T03:35:16;22.01;54.08
68511;SHT31;55512;50.102;19.958;2022-07-21T03:37:43;22.06;54.02
68511;SHT31;55512;50.102;19.958;2022-07-21T03:40:17;22.13;53.97
68511;SHT31;55512;50.102;19.958;2022-07-21T03:42:48;22.20;53.86
68511;SHT31;55512;50.102;19.958;2022-07-21T03:45:15;22.28;53.70
68511;SHT31;55512;50.102;19.958;2022-07-21T03:47:41;22.36;53.65
68511;SHT31;55512;50.102;19.958;2022-07-21T03:50:07;22.42;53.83
68511;SHT31;55512;50.102;19.958;2022-07-21T03:52:34;22.43;53.95
68511;SHT31;55512;50.102;19.958;2022-07-21T03:54:59;22.43;54.02
68511;SHT31;55512;50.102;19.958;2022-07-21T03:57:41;22.44;54.05
68511;SHT31;55512;50.102;19.958;2022-07-21T04:00:24;22.42;54.20
68511;SHT31;55512;50.102;19.958;2022-07-21T04:02:57;22.41;54.21
68511;SHT31;55512;50.102;19.958;2022-07-21T04:05:23;22.43;54.30
68511;SHT31;55512;50.102;19.958;2022-07-21T04:07:51;22.48;54.30
68511;SHT31;55512;50.102;19.958;2022-07-21T04:10:19;22.54;54.29
68511;SHT31;55512;50.102;19.958;2022-07-21T04:12:49;22.60;54.33
68511;SHT31;55512;50.102;19.958;2022-07-21T04:15:16;22.66;54.36
68511;SHT31;55512;50.102;19.958;2022-07-21T04:17:42;22.72;54.32
68511;SHT31;55512;50.102;19.958;2022-07-21T04:20:09;22.79;54.20
68511;SHT31;55512;50.102;19.958;2022-07-21T04:22:37;22.87;54.13
68511;SHT31;55512;50.102;19.958;2022-07-21T04:25:04;22.93;53.92
68511;SHT31;55512;50.102;19.958;2022-07-21T04:27:31;23.01;53.88
68511;SHT31;55512;50.102;19.958;2022-07-21T04:29:58;23.08;53.89
68511;SHT31;55512;50.102;19.958;2022-07-21T04:32:23;23.16;53.82
68511;SHT31;55512;50.102;19.958;2022-07-21T04:34:48;23.23;53.73
68511;SHT31;55512;50.102;19.958;2022-07-21T04:37:14;23.29;53.66
68511;SHT31;55512;50.102;19.958;2022-07-21T04:39:40;23.36;53.51
68511;SHT31;55512;50.102;19.958;2022-07-21T04:42:06;23.43;53.41
68511;SHT31;55512;50.102;19.958;2022-07-21T04:44:32;23.50;53.40
68511;SHT31;55512;50.102;19.958;2022-07-21T04:46:57;23.56;53.33
68511;SHT31;55512;50.102;19.958;2022-07-21T04:49:24;23.61;53.22
68511;SHT31;55512;50.102;19.958;2022-07-21T04:51:49;23.53;53.19
68511;SHT31;55512;50.102;19.958;2022-07-21T04:54:15;23.48;53.28
68511;SHT31;55512;50.102;19.958;2022-07-21T04:56:41;23.42;53.38
68511;SHT31;55512;50.102;19.958;2022-07-21T04:59:07;23.38;53.55
68511;SHT31;55512;50.102;19.958;2022-07-21T05:01:34;23.36;53.61
68511;SHT31;55512;50.102;19.958;2022-07-21T05:04:02;23.35;53.73
68511;SHT31;55512;50.102;19.958;2022-07-21T05:06:27;23.34;53.75
68511;SHT31;55512;50.102;19.958;2022-07-21T05:08:53;23.33;53.74
68511;SHT31;55512;50.102;19.958;2022-07-21T05:11:18;23.34;53.73
68511;SHT31;55512;50.102;19.958;2022-07-21T05:13:44;23.33;53.77
68511;SHT31;55512;50.102;19.958;2022-07-21T05:16:09;23.33;53.83
68511;SHT31;55512;50.102;19.958;2022-07-21T05:18:35;23.37;53.87
68511;SHT31;55512;50.102;19.958;2022-07-21T05:21:00;23.43;53.79
68511;SHT31;55512;50.102;19.958;2022-07-21T05:23:26;23.49;53.67
68511;SHT31;55512;50.102;19.958;2022-07-21T05:25:51;23.54;53.58
68511;SHT31;55512;50.102;19.958;2022-07-21T05:28:17;23.60;53.46
68511;SHT31;55512;50.102;19.958;2022-07-21T05:30:43;23.66;53.33
68511;SHT31;55512;50.102;19.958;2022-07-21T05:33:08;23.70;53.30
68511;SHT31;55512;50.102;19.958;2022-07-21T05:35:35;23.77;53.35
68511;SHT31;55512;50.102;19.958;2022-07-21T05:38:01;23.89;53.26
68511;SHT31;55512;50.102;19.958;2022-07-21T05:40:27;23.98;53.25
68511;SHT31;55512;50.102;19.958;2022-07-21T05:42:52;23.89;53.78
68511;SHT31;55512;50.102;19.958;2022-07-21T05:45:18;24.27;52.97
68511;SHT31;55512;50.102;19.958;2022-07-21T05:47:43;24.41;52.64
68511;SHT31;55512;50.102;19.958;2022-07-21T05:50:09;24.54;52.35
68511;SHT31;55512;50.102;19.958;2022-07-21T05:52:35;24.64;52.13
68511;SHT31;55512;50.102;19.958;2022-07-21T05:55:01;24.73;52.11
68511;SHT31;55512;50.102;19.958;2022-07-21T05:57:27;24.82;51.98
68511;SHT31;55512;50.102;19.958;2022-07-21T05:59:53;24.92;51.81
68511;SHT31;55512;50.102;19.958;2022-07-21T06:02:18;25.03;51.64
68511;SHT31;55512;50.102;19.958;2022-07-21T06:04:44;25.11;51.53
68511;SHT31;55512;50.102;19.958;2022-07-21T06:07:09;25.17;51.30
68511;SHT31;55512;50.102;19.958;2022-07-21T06:09:35;25.26;50.98
68511;SHT31;55512;50.102;19.958;2022-07-21T06:12:01;25.32;50.72
68511;SHT31;55512;50.102;19.958;2022-07-21T06:14:27;25.38;50.66
68511;SHT31;55512;50.102;19.958;2022-07-21T06:16:52;25.47;50.51
68511;SHT31;55512;50.102;19.958;2022-07-21T06:19:18;25.54;50.46
68511;SHT31;55512;50.102;19.958;2022-07-21T06:21:43;25.60;50.38
68511;SHT31;55512;50.102;19.958;2022-07-21T06:24:09;25.68;50.06
68511;SHT31;55512;50.102;19.958;2022-07-21T06:26:35;25.74;49.90
68511;SHT31;55512;50.102;19.958;2022-07-21T06:29:01;25.80;49.81
68511;SHT31;55512;50.102;19.958;2022-07-21T06:31:27;25.85;49.74
68511;SHT31;55512;50.102;19.958;2022-07-21T06:33:52;25.93;49.59
68511;SHT31;55512;50.102;19.958;2022-07-21T06:36:18;26.00;49.37
68511;SHT31;55512;50.102;19.958;2022-07-21T06:38:44;26.06;49.18
68511;SHT31;55512;50.102;19.958;2022-07-21T06:41:10;26.14;49.13
68511;SHT31;55512;50.102;19.958;2022-07-21T06:43:36;26.19;49.00
68511;SHT31;55512;50.102;19.958;2022-07-21T06:46:02;26.16;48.98
68511;SHT31;55512;50.102;19.958;2022-07-21T06:48:28;26.16;49.02
68511;SHT31;55512;50.102;19.958;2022-07-21T06:50:53;26.22;48.90
68511;SHT31;55512;50.102;19.958;2022-07-21T06:53:20;26.31;48.72
68511;SHT31;55512;50.102;19.958;2022-07-21T06:55:47;26.38;48.44
68511;SHT31;55512;50.102;19.958;2022-07-21T06:58:17;26.46;48.09
68511;SHT31;55512;50.102;19.958;2022-07-21T07:00:45;26.55;47.84
68511;SHT31;55512;50.102;19.958;2022-07-21T07:03:14;26.61;47.61
68511;SHT31;55512;50.102;19.958;2022-07-21T07:05:41;26.71;47.53
68511;SHT31;55512;50.102;19.958;2022-07-21T07:08:09;26.79;47.31
68511;SHT31;55512;50.102;19.958;2022-07-21T07:10:36;26.88;47.28
68511;SHT31;55512;50.102;19.958;2022-07-21T07:13:02;26.97;47.16
68511;SHT31;55512;50.102;19.958;2022-07-21T07:15:28;27.06;47.11
68511;SHT31;55512;50.102;19.958;2022-07-21T07:17:54;27.16;47.02
68511;SHT31;55512;50.102;19.958;2022-07-21T07:20:20;27.23;46.89
68511;SHT31;55512;50.102;19.958;2022-07-21T07:22:47;27.31;46.55
68511;SHT31;55512;50.102;19.958;2022-07-21T07:25:13;27.39;46.44
68511;SHT31;55512;50.102;19.958;2022-07-21T07:27:46;27.49;46.22
68511;SHT31;55512;50.102;19.958;2022-07-21T07:30:15;27.56;46.09
68511;SHT31;55512;50.102;19.958;2022-07-21T07:32:43;27.64;45.98
68511;SHT31;55512;50.102;19.958;2022-07-21T07:35:12;27.73;45.89
68511;SHT31;55512;50.102;19.958;2022-07-21T07:37:40;27.82;45.81
68511;SHT31;55512;50.102;19.958;2022-07-21T07:40:10;27.89;45.75
68511;SHT31;55512;50.102;19.958;2022-07-21T07:42:40;27.96;45.82
68511;SHT31;55512;50.102;19.958;2022-07-21T07:45:06;28.01;45.79
68511;SHT31;55512;50.102;19.958;2022-07-21T07:47:33;28.08;45.54
68511;SHT31;55512;50.102;19.958;2022-07-21T07:49:59;28.14;45.50
68511;SHT31;55512;50.102;19.958;2022-07-21T07:52:26;28.18;45.48
68511;SHT31;55512;50.102;19.958;2022-07-21T07:54:54;28.24;45.12
68511;SHT31;55512;50.102;19.958;2022-07-21T07:57:19;28.32;44.94
68511;SHT31;55512;50.102;19.958;2022-07-21T07:59:45;28.42;45.00
68511;SHT31;55512;50.102;19.958;2022-07-21T08:02:11;28.51;45.00
68511;SHT31;55512;50.102;19.958;2022-07-21T08:04:36;28.58;44.86
68511;SHT31;55512;50.102;19.958;2022-07-21T08:07:02;28.64;44.82
68511;SHT31;55512;50.102;19.958;2022-07-21T08:09:28;28.74;44.77
68511;SHT31;55512;50.102;19.958;2022-07-21T08:11:55;28.84;44.50
68511;SHT31;55512;50.102;19.958;2022-07-21T08:14:20;28.92;44.21
68511;SHT31;55512;50.102;19.958;2022-07-21T08:16:47;29.01;44.02
68511;SHT31;55512;50.102;19.958;2022-07-21T08:19:13;29.08;43.85
68511;SHT31;55512;50.102;19.958;2022-07-21T08:21:38;29.15;43.50
68511;SHT31;55512;50.102;19.958;2022-07-21T08:24:04;29.21;43.50
68511;SHT31;55512;50.102;19.958;2022-07-21T08:26:31;29.27;43.24
68511;SHT31;55512;50.102;19.958;2022-07-21T08:28:57;29.34;42.87
68511;SHT31;55512;50.102;19.958;2022-07-21T08:31:23;29.44;42.70
68511;SHT31;55512;50.102;19.958;2022-07-21T08:33:50;29.53;42.73
68511;SHT31;55512;50.102;19.958;2022-07-21T08:36:17;29.63;42.55
68511;SHT31;55512;50.102;19.958;2022-07-21T08:38:44;29.72;42.50
68511;SHT31;55512;50.102;19.958;2022-07-21T08:41:10;29.79;42.32
68511;SHT31;55512;50.102;19.958;2022-07-21T08:43:36;29.85;42.10
68511;SHT31;55512;50.102;19.958;2022-07-21T08:46:03;29.93;42.01
68511;SHT31;55512;50.102;19.958;2022-07-21T08:48:29;29.80;42.41
68511;SHT31;55512;50.102;19.958;2022-07-21T08:50:58;30.06;41.83
68511;SHT31;55512;50.102;19.958;2022-07-21T08:53:24;30.13;41.66
68511;SHT31;55512;50.102;19.958;2022-07-21T08:55:50;29.87;41.99
68511;SHT31;55512;50.102;19.958;2022-07-21T08:58:16;30.25;41.06
68511;SHT31;55512;50.102;19.958;2022-07-21T09:00:45;30.40;40.55
68511;SHT31;55512;50.102;19.958;2022-07-21T09:05:44;30.57;39.76
68511;SHT31;55512;50.102;19.958;2022-07-21T09:08:39;30.63;39.63
68511;SHT31;55512;50.102;19.958;2022-07-21T09:11:22;30.66;39.54
68511;SHT31;55512;50.102;19.958;2022-07-21T09:16:52;30.75;38.51
68511;SHT31;55512;50.102;19.958;2022-07-21T09:19:25;30.81;38.73
68511;SHT31;55512;50.102;19.958;2022-07-21T09:21:58;30.90;38.78
68511;SHT31;55512;50.102;19.958;2022-07-21T09:24:27;30.98;38.76
68511;SHT31;55512;50.102;19.958;2022-07-21T09:27:03;31.05;38.87
68511;SHT31;55512;50.102;19.958;2022-07-21T09:29:51;31.09;38.82
68511;SHT31;55512;50.102;19.958;2022-07-21T09:32:35;31.14;38.85
68511;SHT31;55512;50.102;19.958;2022-07-21T09:35:04;31.23;38.58
68511;SHT31;55512;50.102;19.958;2022-07-21T09:37:37;31.34;38.35
68511;SHT31;55512;50.102;19.958;2022-07-21T09:40:06;31.42;38.01
68511;SHT31;55512;50.102;19.958;2022-07-21T09:42:57;31.48;37.80
68511;SHT31;55512;50.102;19.958;2022-07-21T09:45:24;31.58;37.69
68511;SHT31;55512;50.102;19.958;2022-07-21T09:47:50;31.62;37.62
68511;SHT31;55512;50.102;19.958;2022-07-21T09:50:16;31.70;37.48
68511;SHT31;55512;50.102;19.958;2022-07-21T09:52:45;31.74;37.28
68511;SHT31;55512;50.102;19.958;2022-07-21T09:55:15;31.80;37.31
68511;SHT31;55512;50.102;19.958;2022-07-21T09:57:42;31.83;36.91
68511;SHT31;55512;50.102;19.958;2022-07-21T10:00:13;31.86;36.79
68511;SHT31;55512;50.102;19.958;2022-07-21T10:02:43;31.88;36.68
68511;SHT31;55512;50.102;19.958;2022-07-21T10:05:10;31.92;36.66
68511;SHT31;55512;50.102;19.958;2022-07-21T10:07:41;31.97;36.62
68511;SHT31;55512;50.102;19.958;2022-07-21T10:10:10;32.02;36.35
68511;SHT31;55512;50.102;19.958;2022-07-21T10:12:37;32.08;36.33
68511;SHT31;55512;50.102;19.958;2022-07-21T10:15:03;32.14;35.90
68511;SHT31;55512;50.102;19.958;2022-07-21T10:17:29;32.16;35.76
68511;SHT31;55512;50.102;19.958;2022-07-21T10:20:01;32.21;35.64
68511;SHT31;55512;50.102;19.958;2022-07-21T10:23:09;32.27;35.55
68511;SHT31;55512;50.102;19.958;2022-07-21T10:25:47;32.32;35.33
68511;SHT31;55512;50.102;19.958;2022-07-21T10:36:11;32.52;35.03
68511;SHT31;55512;50.102;19.958;2022-07-21T10:44:55;32.73;34.41
68511;SHT31;55512;50.102;19.958;2022-07-21T10:47:22;32.72;34.47
68511;SHT31;55512;50.102;19.958;2022-07-21T10:50:00;32.78;34.18
68511;SHT31;55512;50.102;19.958;2022-07-21T10:57:35;32.43;35.01
68511;SHT31;55512;50.102;19.958;2022-07-21T11:00:21;32.49;34.82
68511;SHT31;55512;50.102;19.958;2022-07-21T11:03:02;32.55;34.93
68511;SHT31;55512;50.102;19.958;2022-07-21T11:05:38;32.62;34.53
68511;SHT31;55512;50.102;19.958;2022-07-21T11:11:32;32.75;34.34
68511;SHT31;55512;50.102;19.958;2022-07-21T11:24:51;33.52;33.58
68511;SHT31;55512;50.102;19.958;2022-07-21T11:27:23;33.68;33.34
68511;SHT31;55512;50.102;19.958;2022-07-21T11:29:52;33.41;33.62
68511;SHT31;55512;50.102;19.958;2022-07-21T11:32:22;33.39;33.08
68511;SHT31;55512;50.102;19.958;2022-07-21T11:34:49;33.83;31.78
68511;SHT31;55512;50.102;19.958;2022-07-21T11:37:33;33.93;31.01
68511;SHT31;55512;50.102;19.958;2022-07-21T11:40:12;33.98;30.83
68511;SHT31;55512;50.102;19.958;2022-07-21T11:42:45;34.05;30.95
68511;SHT31;55512;50.102;19.958;2022-07-21T11:45:15;34.13;30.87
68511;SHT31;55512;50.102;19.958;2022-07-21T11:47:42;34.22;31.03
68511;SHT31;55512;50.102;19.958;2022-07-21T11:50:09;34.31;31.13
68511;SHT31;55512;50.102;19.958;2022-07-21T11:52:38;34.40;31.02
68511;SHT31;55512;50.102;19.958;2022-07-21T11:55:06;34.47;30.96
68511;SHT31;55512;50.102;19.958;2022-07-21T11:57:35;34.54;30.67
68511;SHT31;55512;50.102;19.958;2022-07-21T12:00:05;34.63;30.31
68511;SHT31;55512;50.102;19.958;2022-07-21T12:02:33;34.69;29.90
68511;SHT31;55512;50.102;19.958;2022-07-21T12:05:02;34.71;30.15
68511;SHT31;55512;50.102;19.958;2022-07-21T12:07:37;34.78;30.29
68511;SHT31;55512;50.102;19.958;2022-07-21T12:10:04;34.79;30.12
68511;SHT31;55512;50.102;19.958;2022-07-21T12:12:41;34.76;30.36
68511;SHT31;55512;50.102;19.958;2022-07-21T12:15:11;34.83;30.61
68511;SHT31;55512;50.102;19.958;2022-07-21T12:17:43;34.94;30.55
68511;SHT31;55512;50.102;19.958;2022-07-21T12:20:38;35.06;30.11
68511;SHT31;55512;50.102;19.958;2022-07-21T12:23:20;35.16;29.64
68511;SHT31;55512;50.102;19.958;2022-07-21T12:25:50;35.20;29.81
68511;SHT31;55512;50.102;19.958;2022-07-21T12:28:17;35.28;29.93
68511;SHT31;55512;50.102;19.958;2022-07-21T12:30:46;35.39;29.75
68511;SHT31;55512;50.102;19.958;2022-07-21T12:33:18;35.49;29.44
68511;SHT31;55512;50.102;19.958;2022-07-21T12:36:00;35.61;28.82
68511;SHT31;55512;50.102;19.958;2022-07-21T12:38:35;35.73;28.53
68511;SHT31;55512;50.102;19.958;2022-07-21T12:41:04;36.04;28.00
68511;SHT31;55512;50.102;19.958;2022-07-21T12:43:31;36.01;28.06
68511;SHT31;55512;50.102;19.958;2022-07-21T12:48:29;36.26;28.11
68511;SHT31;55512;50.102;19.958;2022-07-21T12:50:59;36.34;28.17
68511;SHT31;55512;50.102;19.958;2022-07-21T12:53:46;36.46;28.22
68511;SHT31;55512;50.102;19.958;2022-07-21T12:56:16;36.58;27.67
68511;SHT31;55512;50.102;19.958;2022-07-21T12:58:49;36.75;27.64
68511;SHT31;55512;50.102;19.958;2022-07-21T13:01:17;36.87;27.47
68511;SHT31;55512;50.102;19.958;2022-07-21T13:03:45;37.04;27.39
68511;SHT31;55512;50.102;19.958;2022-07-21T13:06:12;37.17;27.14
68511;SHT31;55512;50.102;19.958;2022-07-21T13:08:39;37.28;27.10
68511;SHT31;55512;50.102;19.958;2022-07-21T13:11:06;37.34;26.96
68511;SHT31;55512;50.102;19.958;2022-07-21T13:13:33;37.40;26.87
68511;SHT31;55512;50.102;19.958;2022-07-21T13:15:59;37.42;26.52
68511;SHT31;55512;50.102;19.958;2022-07-21T13:18:27;37.39;26.38
68511;SHT31;55512;50.102;19.958;2022-07-21T13:20:53;37.42;26.07
68511;SHT31;55512;50.102;19.958;2022-07-21T13:23:19;37.46;25.66
68511;SHT31;55512;50.102;19.958;2022-07-21T13:25:46;37.50;25.43
68511;SHT31;55512;50.102;19.958;2022-07-21T13:28:14;37.61;25.47
68511;SHT31;55512;50.102;19.958;2022-07-21T13:30:40;37.96;25.22
68511;SHT31;55512;50.102;19.958;2022-07-21T13:33:06;37.81;25.07
68511;SHT31;55512;50.102;19.958;2022-07-21T13:35:32;37.78;25.12
68511;SHT31;55512;50.102;19.958;2022-07-21T13:37:58;37.87;25.16
68511;SHT31;55512;50.102;19.958;2022-07-21T13:40:24;37.97;25.06
68511;SHT31;55512;50.102;19.958;2022-07-21T13:42:52;38.15;25.30
68511;SHT31;55512;50.102;19.958;2022-07-21T13:45:18;38.33;25.23
68511;SHT31;55512;50.102;19.958;2022-07-21T13:47:44;38.44;25.04
68511;SHT31;55512;50.102;19.958;2022-07-21T13:50:09;38.53;24.90
68511;SHT31;55512;50.102;19.958;2022-07-21T13:52:36;38.71;24.55
68511;SHT31;55512;50.102;19.958;2022-07-21T13:55:05;38.92;24.62
68511;SHT31;55512;50.102;19.958;2022-07-21T13:57:33;39.13;24.63
68511;SHT31;55512;50.102;19.958;2022-07-21T14:00:00;39.35;24.41
68511;SHT31;55512;50.102;19.958;2022-07-21T14:02:29;39.57;23.94
68511;SHT31;55512;50.102;19.958;2022-07-21T14:04:55;39.75;23.23
68511;SHT31;55512;50.102;19.958;2022-07-21T14:07:21;39.88;22.58
68511;SHT31;55512;50.102;19.958;2022-07-21T14:09:46;39.98;22.08
68511;SHT31;55512;50.102;19.958;2022-07-21T14:12:12;40.10;22.04
68511;SHT31;55512;50.102;19.958;2022-07-21T14:14:37;40.26;22.09
68511;SHT31;55512;50.102;19.958;2022-07-21T14:17:03;40.43;21.91
68511;SHT31;55512;50.102;19.958;2022-07-21T14:19:29;40.61;21.90
68511;SHT31;55512;50.102;19.958;2022-07-21T14:21:55;40.77;21.86
68511;SHT31;55512;50.102;19.958;2022-07-21T14:24:20;40.91;21.57
68511;SHT31;55512;50.102;19.958;2022-07-21T14:27:05;41.04;21.38
68511;SHT31;55512;50.102;19.958;2022-07-21T14:29:31;41.20;21.24
68511;SHT31;55512;50.102;19.958;2022-07-21T14:31:57;41.35;21.02
68511;SHT31;55512;50.102;19.958;2022-07-21T14:34:22;41.49;21.14
68511;SHT31;55512;50.102;19.958;2022-07-21T14:36:48;41.60;21.04
68511;SHT31;55512;50.102;19.958;2022-07-21T14:39:14;41.71;20.96
68511;SHT31;55512;50.102;19.958;2022-07-21T14:41:40;41.83;20.46
68511;SHT31;55512;50.102;19.958;2022-07-21T14:44:06;41.93;20.57
68511;SHT31;55512;50.102;19.958;2022-07-21T14:46:31;42.02;20.78
68511;SHT31;55512;50.102;19.958;2022-07-21T14:48:57;42.14;20.65
68511;SHT31;55512;50.102;19.958;2022-07-21T14:51:23;42.16;20.46
68511;SHT31;55512;50.102;19.958;2022-07-21T14:53:49;42.17;20.49
68511;SHT31;55512;50.102;19.958;2022-07-21T14:56:14;42.27;20.72
68511;SHT31;55512;50.102;19.958;2022-07-21T14:58:40;42.35;20.60
68511;SHT31;55512;50.102;19.958;2022-07-21T15:01:05;42.51;20.69
68511;SHT31;55512;50.102;19.958;2022-07-21T15:03:32;42.72;20.71
68511;SHT31;55512;50.102;19.958;2022-07-21T15:05:57;42.94;20.63
68511;SHT31;55512;50.102;19.958;2022-07-21T15:08:23;43.04;20.58
68511;SHT31;55512;50.102;19.958;2022-07-21T15:10:48;43.24;20.54
68511;SHT31;55512;50.102;19.958;2022-07-21T15:13:14;43.41;20.41
68511;SHT31;55512;50.102;19.958;2022-07-21T15:15:41;43.51;19.98
68511;SHT31;55512;50.102;19.958;2022-07-21T15:18:09;43.62;19.79
68511;SHT31;55512;50.102;19.958;2022-07-21T15:20:35;43.64;19.80
68511;SHT31;55512;50.102;19.958;2022-07-21T15:23:01;43.56;20.03
68511;SHT31;55512;50.102;19.958;2022-07-21T15:25:27;43.58;19.86
68511;SHT31;55512;50.102;19.958;2022-07-21T15:27:53;43.46;19.65
68511;SHT31;55512;50.102;19.958;2022-07-21T15:30:18;43.40;19.71
68511;SHT31;55512;50.102;19.958;2022-07-21T15:32:44;43.45;19.75
68511;SHT31;55512;50.102;19.958;2022-07-21T15:35:10;43.62;19.71
68511;SHT31;55512;50.102;19.958;2022-07-21T15:37:36;43.71;19.38
68511;SHT31;55512;50.102;19.958;2022-07-21T15:40:04;43.71;19.24
68511;SHT31;55512;50.102;19.958;2022-07-21T15:42:31;43.75;19.22
68511;SHT31;55512;50.102;19.958;2022-07-21T15:44:59;43.81;19.00
68511;SHT31;55512;50.102;19.958;2022-07-21T15:47:25;43.86;19.12
68511;SHT31;55512;50.102;19.958;2022-07-21T15:49:50;43.92;19.12
68511;SHT31;55512;50.102;19.958;2022-07-21T15:52:16;43.99;19.10
68511;SHT31;55512;50.102;19.958;2022-07-21T15:54:42;44.03;18.94
68511;SHT31;55512;50.102;19.958;2022-07-21T15:57:08;44.06;18.91
68511;SHT31;55512;50.102;19.958;2022-07-21T15:59:34;44.08;18.97
68511;SHT31;55512;50.102;19.958;2022-07-21T16:02:05;44.13;19.08